﻿ProjectID	SampleID	SampleType	TaxonomyID	UniqCodeType	UniqCode	SampleName	ScientificName	CommonName	CollectionYear	CollectionMonth	CollectionDay	SamplingTimeStartEnd	SamplingTimeAMPM	SamplingDuration	WeatherStartEnd	CollectionRegion	CollectionCountry	CollectionArea	CollectionLatitudeFrom	CollectionLatitudeTo	CollectionLongitudeFrom	CollectionLongitudeTo	Sex	TissueOrgan	TissueLipid	TissueMoist	Weight	WeightUnit	Length	LengthUnit	LengthType	GrowthStage	Age	Disease	TemperatureStartEnd	WaterTemperatureStartEnd	pH	DO	EC	EC_temp	Salinity	SS	WaterDepthM	TransparencyM	WaterColor	SedimentTemperatureStartEnd	SedimentDepthM	SedimentAppearance	SedimentColor	SedimentSurfaceColor	SedimentOdor	SedimentImpurities	SedimentMoistureOnSiteAnalysis	IgnitionLossOnSiteAnalysis	SoilDepthM	FlowRate	MeanPM10	MeanTotalSuspendedParticles	HumidityStartEnd	WindDirectionStartEnd	WindSpeedMSStartEnd	AmountOfCollectedAirStartEnd	Remarks	RegisterDate	UpdateDate
PRA000001	SAA000001	ST008	8226	es-BANK	EF00564		"Katsuwonus pelamis"	"Skipjack tuna"	1998	8	24					"Pacific Ocean"	Unknown		44.4833	44.4833	175.517	175.517	Male	Liver	7.17		1.85	kg	45	cm	"Fork length"																																	2016/5/31	2016/6/14
PRA000001	SAA000002	ST008	8226	es-BANK	EF00565		"Katsuwonus pelamis"	"Skipjack tuna"	1998	8	24					"Pacific Ocean"	Unknown		44.4833	44.4833	175.517	175.517		Liver	9.68		2	kg	43	cm	"Fork length"																																	2016/5/31	2016/6/14
PRA000001	SAA000003	ST008	8226	es-BANK	EF00566		"Katsuwonus pelamis"	"Skipjack tuna"	1998	8	24					"Pacific Ocean"	Unknown		44.4833	44.4833	175.517	175.517	Female	Liver	7.5		1.75	kg	44	cm	"Fork length"																																	2016/5/31	2016/6/14
PRA000001	SAA000004	ST008	8226	es-BANK	EF00567		"Katsuwonus pelamis"	"Skipjack tuna"	1998	8	24					"Pacific Ocean"	Unknown		44.4833	44.4833	175.517	175.517	Male	Liver	5.26		1.65	kg	43	cm	"Fork length"																																	2016/5/31	2016/6/14
PRA000001	SAA000005	ST008	8226	es-BANK	EF00568		"Katsuwonus pelamis"	"Skipjack tuna"	1998	8	24					"Pacific Ocean"	Unknown		44.4833	44.4833	175.517	175.517	Female	Liver	5.72		1.75	kg	44.5	cm	"Fork length"																																	2016/5/31	2016/6/14
PRA000001	SAA000006	ST008	8226	es-BANK	EF00435		"Katsuwonus pelamis"	"Skipjack tuna"	1997	10	1					Asia	Japan	"Kesennuma, Miyagi"	38.8386	38.8669	141.588	141.607		Liver	6.64		2.6	kg	49	cm	"Fork length"																																	2016/5/31	2016/6/14
PRA000001	SAA000007	ST008	8226	es-BANK	EF00436		"Katsuwonus pelamis"	"Skipjack tuna"	1997	10	1					Asia	Japan	"Kesennuma, Miyagi"	38.8386	38.8669	141.588	141.607		Liver	5.79		2.7	kg	50	cm	"Fork length"																																	2016/5/31	2016/6/14
PRA000001	SAA000008	ST008	8226	es-BANK	EF00437		"Katsuwonus pelamis"	"Skipjack tuna"	1997	10	1					Asia	Japan	"Kesennuma, Miyagi"	38.8386	38.8669	141.588	141.607		Liver	4.37		2.7	kg	50	cm	"Fork length"																																	2016/5/31	2016/6/14
PRA000001	SAA000009	ST008	8226	es-BANK	EF00438		"Katsuwonus pelamis"	"Skipjack tuna"	1997	10	1					Asia	Japan	"Kesennuma, Miyagi"	38.8386	38.8669	141.588	141.607		Liver	20.2		2.6	kg	49	cm	"Fork length"																																	2016/5/31	2016/6/14
PRA000001	SAA000010	ST008	8226	es-BANK	EF00439		"Katsuwonus pelamis"	"Skipjack tuna"	1997	10	1					Asia	Japan	"Kesennuma, Miyagi"	38.8386	38.8669	141.588	141.607		Liver	8.1		2.6	kg	49	cm	"Fork length"																																	2016/5/31	2016/6/14
PRA000001	SAA000011	ST008	8226	es-BANK	EF00403		"Katsuwonus pelamis"	"Skipjack tuna"	1997	5	12					Asia	Japan	"Off Chiba"	34.95	34.95	140.6	140.6		Liver	6.23		1.69	kg	45.5	cm	"Fork length"																																	2016/5/31	2016/6/14
PRA000001	SAA000012	ST008	8226	es-BANK	EF00404		"Katsuwonus pelamis"	"Skipjack tuna"	1997	5	12					Asia	Japan	"Off Chiba"	34.95	34.95	140.6	140.6		Liver	4.23		1.72	kg	45.5	cm	"Fork length"																																	2016/5/31	2016/6/14
PRA000001	SAA000013	ST008	8226	es-BANK	EF00405		"Katsuwonus pelamis"	"Skipjack tuna"	1997	5	12					Asia	Japan	"Off Chiba"	34.95	34.95	140.6	140.6		Liver	6.61		1.71	kg	46	cm	"Fork length"																																	2016/5/31	2016/6/14
PRA000001	SAA000014	ST008	8226	es-BANK	EF00406		"Katsuwonus pelamis"	"Skipjack tuna"	1997	5	12					Asia	Japan	"Off Chiba"	34.95	34.95	140.6	140.6		Liver	4.9		1.76	kg	46	cm	"Fork length"																																	2016/5/31	2016/6/14
PRA000001	SAA000015	ST008	8226	es-BANK	EF00407		"Katsuwonus pelamis"	"Skipjack tuna"	1997	5	12					Asia	Japan	"Off Chiba"	34.95	34.95	140.6	140.6		Liver	3.88		1.71	kg	47	cm	"Fork length"																																	2016/5/31	2016/6/14
PRA000001	SAA000016	ST008	8226	es-BANK	EF00425		"Katsuwonus pelamis"	"Skipjack tuna"	1997	6	24					Asia	Japan	"Off Izu"	33.5667	33.8333	140.833	140.833	Female	Liver	3.14		3.52	kg	54	cm	"Fork length"																																	2016/5/31	2016/6/14
PRA000001	SAA000017	ST008	8226	es-BANK	EF00426		"Katsuwonus pelamis"	"Skipjack tuna"	1997	6	24					Asia	Japan	"Off Izu"	33.5667	33.8333	140.833	140.833	Male	Liver	2.3		3.17	kg	54	cm	"Fork length"																																	2016/5/31	2016/6/14
PRA000001	SAA000018	ST008	8226	es-BANK	EF00427		"Katsuwonus pelamis"	"Skipjack tuna"	1997	6	24					Asia	Japan	"Off Izu"	33.5667	33.8333	140.833	140.833	Female	Liver	6.09		3.47	kg	54.6	cm	"Fork length"																																	2016/5/31	2016/6/14
PRA000001	SAA000019	ST008	8226	es-BANK	EF00428		"Katsuwonus pelamis"	"Skipjack tuna"	1997	6	24					Asia	Japan	"Off Izu"	33.5667	33.8333	140.833	140.833	Female	Liver	2.97		1.6	kg	44.6	cm	"Fork length"																																	2016/5/31	2016/6/14
PRA000001	SAA000020	ST008	8226	es-BANK	EF00429		"Katsuwonus pelamis"	"Skipjack tuna"	1997	6	24					Asia	Japan	"Off Izu"	33.5667	33.8333	140.833	140.833	Male	Liver	2.68		1.68	kg	45	cm	"Fork length"																																	2016/5/31	2016/6/14
PRA000001	SAA000021	ST008	8226	es-BANK	EF00408		"Katsuwonus pelamis"	"Skipjack tuna"	1997	5	12					Asia	Japan	"Off Kochi"	32.625	33.5486	132.4	134.4		Liver	2.02		1.5	kg	43	cm	"Fork length"																																	2016/5/31	2016/6/14
PRA000001	SAA000022	ST008	8226	es-BANK	EF00409		"Katsuwonus pelamis"	"Skipjack tuna"	1997	5	12					Asia	Japan	"Off Kochi"	32.625	33.5486	132.4	134.4		Liver	3.28		1.4	kg	41	cm	"Fork length"																																	2016/5/31	2016/6/14
PRA000001	SAA000023	ST008	8226	es-BANK	EF00410		"Katsuwonus pelamis"	"Skipjack tuna"	1997	5	12					Asia	Japan	"Off Kochi"	32.625	33.5486	132.4	134.4		Liver	5.54		1.3	kg	40	cm	"Fork length"																																	2016/5/31	2016/6/14
PRA000001	SAA000024	ST008	8226	es-BANK	EF00411		"Katsuwonus pelamis"	"Skipjack tuna"	1997	5	12					Asia	Japan	"Off Kochi"	32.625	33.5486	132.4	134.4		Liver	3.63		1.6	kg	44	cm	"Fork length"																																	2016/5/31	2016/6/14
PRA000001	SAA000025	ST008	8226	es-BANK	EF00412		"Katsuwonus pelamis"	"Skipjack tuna"	1997	5	12					Asia	Japan	"Off Kochi"	32.625	33.5486	132.4	134.4		Liver	2.53		1.6	kg	44	cm	"Fork length"																																	2016/5/31	2016/6/14
PRA000001	SAA000026	ST008	8226	es-BANK	EF00705		"Katsuwonus pelamis"	"Skipjack tuna"	1999	6	15					Asia	Japan	"Off Izu"	34.8497	34.9464	138.573	138.709	Female	Liver	3.01		5.2	kg	61.8	cm	"Fork length"																																	2016/5/31	2016/6/14
PRA000001	SAA000027	ST008	8226	es-BANK	EF00706		"Katsuwonus pelamis"	"Skipjack tuna"	1999	6	15					Asia	Japan	"Off Izu"	34.8497	34.9464	138.573	138.709	Male	Liver	7.09		5.3	kg	61	cm	"Fork length"																																	2016/5/31	2016/6/14
PRA000001	SAA000028	ST008	8226	es-BANK	EF00707		"Katsuwonus pelamis"	"Skipjack tuna"	1999	6	15					Asia	Japan	"Off Izu"	34.8497	34.9464	138.573	138.709	Female	Liver	3.14		5.3	kg	61	cm	"Fork length"																																	2016/5/31	2016/6/14
PRA000001	SAA000029	ST008	8226	es-BANK	EF14926		"Katsuwonus pelamis"	"Skipjack tuna"	1997	10	14					Asia	Japan	"Off Chiba"	35.5606	35.6322	139.949	140.031		Liver	5.38		3.16	kg	52.5	cm	"Fork length"																																	2016/5/31	2016/6/14
PRA000001	SAA000030	ST008	8226	es-BANK	EF14927		"Katsuwonus pelamis"	"Skipjack tuna"	1997	10	14					Asia	Japan	"Off Chiba"	35.5606	35.6322	139.949	140.031		Liver	6.79		3.74	kg	56	cm	"Fork length"																																	2016/5/31	2016/6/14
PRA000001	SAA000031	ST008	8226	es-BANK	EF14928		"Katsuwonus pelamis"	"Skipjack tuna"	1997	10	14					Asia	Japan	"Off Chiba"	35.5606	35.6322	139.949	140.031		Liver	6.54		3.05	kg	53.5	cm	"Fork length"																																	2016/5/31	2016/6/14
PRA000001	SAA000032	ST008	8226	es-BANK	EF14929		"Katsuwonus pelamis"	"Skipjack tuna"	1997	10	14					Asia	Japan	"Off Chiba"	35.5606	35.6322	139.949	140.031		Liver	4.9		3.41	kg	56.3	cm	"Fork length"																																	2016/5/31	2016/6/14
PRA000001	SAA000033	ST008	8226	es-BANK	EF14930		"Katsuwonus pelamis"	"Skipjack tuna"	1997	10	14					Asia	Japan	"Off Chiba"	35.5606	35.6322	139.949	140.031		Liver	8.33		3.55	kg	55.5	cm	"Fork length"																																	2016/5/31	2016/6/14
PRA000001	SAA000034	ST008	8226	es-BANK	EF00642		"Katsuwonus pelamis"	"Skipjack tuna"	1999	5	25					Asia	Japan	"The Sea around Eastern Shikoku"	33.2636	34.3422	133.386	135.093		Liver	2.51		0.8	kg	35	cm	"Fork length"																																	2016/5/31	2016/6/14
PRA000001	SAA000035	ST008	8226	es-BANK	EF00481		"Katsuwonus pelamis"	"Skipjack tuna"	1997	10	15					Asia	Japan	"Off Kochi"	32.625	33.5486	132.4	134.4		Liver	9.79		4.6	kg	60	cm	"Fork length"																																	2016/5/31	2016/6/14
PRA000001	SAA000036	ST008	8226	es-BANK	EF00482		"Katsuwonus pelamis"	"Skipjack tuna"	1997	10	15					Asia	Japan	"Off Kochi"	32.625	33.5486	132.4	134.4		Liver	18.05		4.9	kg	60	cm	"Fork length"																																	2016/5/31	2016/6/14
PRA000001	SAA000037	ST008	8226	es-BANK	EF00483		"Katsuwonus pelamis"	"Skipjack tuna"	1997	10	15					Asia	Japan	"Off Kochi"	32.625	33.5486	132.4	134.4	Male	Liver	2.72		4.5	kg	61	cm	"Fork length"																																	2016/5/31	2016/6/14
PRA000001	SAA000038	ST008	8226	es-BANK	EF00484		"Katsuwonus pelamis"	"Skipjack tuna"	1997	10	15					Asia	Japan	"Off Kochi"	32.625	33.5486	132.4	134.4	Female	Liver	3.84		4.7	kg	60	cm	"Fork length"																																	2016/5/31	2016/6/14
PRA000001	SAA000039	ST008	8226	es-BANK	EF00485		"Katsuwonus pelamis"	"Skipjack tuna"	1997	10	15					Asia	Japan	"Off Kochi"	32.625	33.5486	132.4	134.4	Female	Liver	4.8		5	kg	60	cm	"Fork length"																																	2016/5/31	2016/6/14
PRA000001	SAA000040	ST008	8226	es-BANK	EF00601		"Katsuwonus pelamis"	"Skipjack tuna"	1998	11	1					Asia	Japan	"Off Kochi"	32.625	33.5486	132.4	134.4	Female	Liver	4.53		3.1	kg	53	cm	"Fork length"																																	2016/5/31	2016/6/14
PRA000001	SAA000041	ST008	8226	es-BANK	EF00602		"Katsuwonus pelamis"	"Skipjack tuna"	1998	11	1					Asia	Japan	"Off Kochi"	32.625	33.5486	132.4	134.4	Male	Liver	3.37		2.8	kg	54	cm	"Fork length"																																	2016/5/31	2016/6/14
PRA000001	SAA000042	ST008	8226	es-BANK	EF00603		"Katsuwonus pelamis"	"Skipjack tuna"	1998	11	1					Asia	Japan	"Off Kochi"	32.625	33.5486	132.4	134.4	Female	Liver	3.78		2.9	kg	52	cm	"Fork length"																																	2016/5/31	2016/6/14
PRA000001	SAA000043	ST008	8226	es-BANK	EF00604		"Katsuwonus pelamis"	"Skipjack tuna"	1998	11	1					Asia	Japan	"Off Kochi"	32.625	33.5486	132.4	134.4	Female	Liver	2.5		2.9	kg	53	cm	"Fork length"																																	2016/5/31	2016/6/14
PRA000001	SAA000044	ST008	8226	es-BANK	EF00605		"Katsuwonus pelamis"	"Skipjack tuna"	1998	11	1					Asia	Japan	"Off Kochi"	32.625	33.5486	132.4	134.4	Female	Liver	2.74		2.9	kg	52	cm	"Fork length"																																	2016/5/31	2016/6/14
PRA000001	SAA000045	ST008	8226	es-BANK	EF00492		"Katsuwonus pelamis"	"Skipjack tuna"	1997	10	15					Asia	Japan	"Sea of Japan"	36.6044	41.7811	131.453	137.3		Liver	17.62		5.7	kg	63	cm	"Fork length"																																	2016/5/31	2016/6/14
PRA000001	SAA000046	ST008	8226	es-BANK	EF00493		"Katsuwonus pelamis"	"Skipjack tuna"	1997	10	15					Asia	Japan	"Sea of Japan"	36.6044	41.7811	131.453	137.3		Liver	3.47		5.5	kg	63	cm	"Fork length"																																	2016/5/31	2016/6/14
PRA000001	SAA000047	ST008	8226	es-BANK	EF00494		"Katsuwonus pelamis"	"Skipjack tuna"	1997	10	15					Asia	Japan	"Sea of Japan"	36.6044	41.7811	131.453	137.3		Liver	15.5		5.5	kg	63	cm	"Fork length"																																	2016/5/31	2016/6/14
PRA000001	SAA000048	ST008	8226	es-BANK	EF00495		"Katsuwonus pelamis"	"Skipjack tuna"	1997	10	15					Asia	Japan	"Sea of Japan"	36.6044	41.7811	131.453	137.3		Liver	8.26		5.6	kg	62	cm	"Fork length"																																	2016/5/31	2016/6/14
PRA000001	SAA000049	ST008	8226	es-BANK	EF00497		"Katsuwonus pelamis"	"Skipjack tuna"	1997	10	15					Asia	Japan	"Sea of Japan"	36.6044	41.7811	131.453	137.3		Liver	2.73		5.8	kg	65	cm	"Fork length"																																	2016/5/31	2016/6/14
PRA000001	SAA000050	ST008	8226	es-BANK	EF00486		"Katsuwonus pelamis"	"Skipjack tuna"	1997	10	15					Asia	Japan	"Off Kagoshima"	31.325	31.4772	130.599	130.718		Liver	3.23		5.3	kg	62	cm	"Fork length"																																	2016/5/31	2016/6/14
PRA000001	SAA000051	ST008	8226	es-BANK	EF00487		"Katsuwonus pelamis"	"Skipjack tuna"	1997	10	15					Asia	Japan	"Off Kagoshima"	31.325	31.4772	130.599	130.718		Liver	4.58		5.4	kg	61	cm	"Fork length"																																	2016/5/31	2016/6/14
PRA000001	SAA000052	ST008	8226	es-BANK	EF00488		"Katsuwonus pelamis"	"Skipjack tuna"	1997	10	15					Asia	Japan	"Off Kagoshima"	31.325	31.4772	130.599	130.718		Liver	6.86		4.9	kg	60	cm	"Fork length"																																	2016/5/31	2016/6/14
PRA000001	SAA000053	ST008	8226	es-BANK	EF00489		"Katsuwonus pelamis"	"Skipjack tuna"	1997	10	15					Asia	Japan	"Off Kagoshima"	31.325	31.4772	130.599	130.718		Liver	12.37		5.2	kg	63	cm	"Fork length"																																	2016/5/31	2016/6/14
PRA000001	SAA000054	ST008	8226	es-BANK	EF00490		"Katsuwonus pelamis"	"Skipjack tuna"	1997	10	15					Asia	Japan	"Off Kagoshima"	31.325	31.4772	130.599	130.718		Liver	4.68		5	kg	61	cm	"Fork length"																																	2016/5/31	2016/6/14
PRA000001	SAA000055	ST008	8226	es-BANK	EF00498		"Katsuwonus pelamis"	"Skipjack tuna"	1997	10	15					Asia	Japan	"Off Tsushima Island, Nagasaki"	33.9103	34.8142	129.025	129.899		Liver	3.9		3.4	kg	55	cm	"Fork length"																																	2016/5/31	2016/6/14
PRA000001	SAA000056	ST008	8226	es-BANK	EF00499		"Katsuwonus pelamis"	"Skipjack tuna"	1997	10	15					Asia	Japan	"Off Tsushima Island, Nagasaki"	33.9103	34.8142	129.025	129.899		Liver	4.72		3.8	kg	58	cm	"Fork length"																																	2016/5/31	2016/6/14
PRA000001	SAA000057	ST008	8226	es-BANK	EF00500		"Katsuwonus pelamis"	"Skipjack tuna"	1997	10	15					Asia	Japan	"Off Tsushima Island, Nagasaki"	33.9103	34.8142	129.025	129.899		Liver	3.12		4	kg	58	cm	"Fork length"																																	2016/5/31	2016/6/14
PRA000001	SAA000058	ST008	8226	es-BANK	EF00501		"Katsuwonus pelamis"	"Skipjack tuna"	1997	10	15					Asia	Japan	"Off Tsushima Island, Nagasaki"	33.9103	34.8142	129.025	129.899		Liver	10.92		4.5	kg	60	cm	"Fork length"																																	2016/5/31	2016/6/14
PRA000001	SAA000059	ST008	8226	es-BANK	EF00502		"Katsuwonus pelamis"	"Skipjack tuna"	1997	10	15					Asia	Japan	"Off Tsushima Island, Nagasaki"	33.9103	34.8142	129.025	129.899		Liver	5.54		3.7	kg	58	cm	"Fork length"																																	2016/5/31	2016/6/14
PRA000001	SAA000060	ST008	8226	es-BANK	EF00627		"Katsuwonus pelamis"	"Skipjack tuna"	1999	5	18					Asia	China	"East China Sea (northern part)"	31.1467	33.8127	121.185	128.023	Male	Liver	8.35		3.5	kg	54	cm	"Fork length"																																	2016/5/31	2016/6/14
PRA000001	SAA000061	ST008	8226	es-BANK	EF00628		"Katsuwonus pelamis"	"Skipjack tuna"	1999	5	18					Asia	China	"East China Sea (northern part)"	31.1467	33.8127	121.185	128.023	Male	Liver	11.75		3.6	kg	55	cm	"Fork length"																																	2016/5/31	2016/6/14
PRA000001	SAA000062	ST008	8226	es-BANK	EF00629		"Katsuwonus pelamis"	"Skipjack tuna"	1999	5	18					Asia	China	"East China Sea (northern part)"	31.1467	33.8127	121.185	128.023	Male	Liver	3.13		3.4	kg	52.5	cm	"Fork length"																																	2016/5/31	2016/6/14
PRA000001	SAA000063	ST008	8226	es-BANK	EF00380		"Katsuwonus pelamis"	"Skipjack tuna"	1996	10	30					Asia	Japan	"Yaeyama, Okinawa"	24.2714	24.4089	123.474	123.659		Liver	3.43						"Fork length"																																	2016/5/31	2016/6/14
PRA000001	SAA000064	ST008	8226	es-BANK	EF00381		"Katsuwonus pelamis"	"Skipjack tuna"	1996	10	31					Asia	Japan	"Yaeyama, Okinawa"	24.2714	24.4089	123.474	123.659		Liver	10.83						"Fork length"																																	2016/5/31	2016/6/14
PRA000001	SAA000065	ST008	8226	es-BANK	EF00382		"Katsuwonus pelamis"	"Skipjack tuna"	1996	10	31					Asia	Japan	"Yaeyama, Okinawa"	24.2714	24.4089	123.474	123.659		Liver	10.48						"Fork length"																																	2016/5/31	2016/6/14
PRA000001	SAA000066	ST008	8226	es-BANK	EF00383		"Katsuwonus pelamis"	"Skipjack tuna"	1996	10	31					Asia	Japan	"Yaeyama, Okinawa"	24.2714	24.4089	123.474	123.659		Liver	11.02						"Fork length"																																	2016/5/31	2016/6/14
PRA000001	SAA000067	ST008	8226	es-BANK	EF00384		"Katsuwonus pelamis"	"Skipjack tuna"	1996	10	31					Asia	Japan	"Yaeyama, Okinawa"	24.2714	24.4089	123.474	123.659		Liver	7.48						"Fork length"																																	2016/5/31	2016/6/14
PRA000001	SAA000068	ST008	8226	es-BANK	EF00693		"Katsuwonus pelamis"	"Skipjack tuna"	1999	6	25					Asia	"Taiwan, Province of China"	"East China Sea (Taiwan side)"	22.3203	26.58	122.462	124.034		Liver	4.33		1.3	kg	42	cm	"Fork length"																																	2016/5/31	2016/6/14
PRA000001	SAA000069	ST008	8226	es-BANK	EF00582		"Katsuwonus pelamis"	"Skipjack tuna"	1998	11	1					Asia	"Taiwan, Province of China"	"East China Sea (Taiwan side)"	22.3203	26.58	122.462	124.034	Male	Liver	2.73		4.9	kg	59	cm	"Fork length"																																	2016/5/31	2016/6/14
PRA000001	SAA000070	ST008	8226	es-BANK	EF00583		"Katsuwonus pelamis"	"Skipjack tuna"	1998	11	1					Asia	"Taiwan, Province of China"	"East China Sea (Taiwan side)"	22.3203	26.58	122.462	124.034	Female	Liver			5	kg	62	cm	"Fork length"																																	2016/5/31	2016/6/14
PRA000001	SAA000071	ST008	8226	es-BANK	EF00584		"Katsuwonus pelamis"	"Skipjack tuna"	1998	11	1					Asia	"Taiwan, Province of China"	"East China Sea (Taiwan side)"	22.3203	26.58	122.462	124.034	Female	Liver	2.47		4.9	kg	60	cm	"Fork length"																																	2016/5/31	2016/6/14
PRA000001	SAA000072	ST008	8226	es-BANK	EF00585		"Katsuwonus pelamis"	"Skipjack tuna"	1998	11	1					Asia	"Taiwan, Province of China"	"East China Sea (Taiwan side)"	22.3203	26.58	122.462	124.034	Female	Liver	2.83		5	kg	63	cm	"Fork length"																																	2016/5/31	2016/6/14
PRA000001	SAA000073	ST008	8226	es-BANK	EF00586		"Katsuwonus pelamis"	"Skipjack tuna"	1998	11	1					Asia	"Taiwan, Province of China"	"East China Sea (Taiwan side)"	22.3203	26.58	122.462	124.034	Female	Liver	2.92						"Fork length"																																	2016/5/31	2016/6/14
PRA000001	SAA000074	ST008	8226	es-BANK	EF00797		"Katsuwonus pelamis"	"Skipjack tuna"	2001	6	20					Asia	"Hong Kong"	"Hong Kong, China"	22.161	22.499	113.858	114.442		Liver	8.07		0.5	kg	31	cm	"Fork length"																																	2016/5/31	2016/6/14
PRA000001	SAA000075	ST008	8226	es-BANK	EF00520		"Katsuwonus pelamis"	"Skipjack tuna"	1997	12	1					Asia	Philippines	Manila	14.5885	14.6119	120.926	120.959		Liver	3.26		1.5	kg	45	cm	"Fork length"																																	2016/5/31	2016/6/14
PRA000001	SAA000076	ST008	8226	es-BANK	EF00521		"Katsuwonus pelamis"	"Skipjack tuna"	1997	12	1					Asia	Philippines	Manila	14.5885	14.6119	120.926	120.959		Liver	2.54		1.5	kg	42	cm	"Fork length"																																	2016/5/31	2016/6/14
PRA000001	SAA000077	ST008	8226	es-BANK	EF00522		"Katsuwonus pelamis"	"Skipjack tuna"	1997	12	1					Asia	Philippines	Manila	14.5885	14.6119	120.926	120.959		Liver	2.37		1.4	kg	41	cm	"Fork length"																																	2016/5/31	2016/6/14
PRA000001	SAA000078	ST008	8226	es-BANK	EF00523		"Katsuwonus pelamis"	"Skipjack tuna"	1997	12	1					Asia	Philippines	Manila	14.5885	14.6119	120.926	120.959		Liver	2.46		1.6	kg	43	cm	"Fork length"																																	2016/5/31	2016/6/14
PRA000001	SAA000079	ST008	8226	es-BANK	EF00524		"Katsuwonus pelamis"	"Skipjack tuna"	1997	12	1					Asia	Philippines	Manila	14.5885	14.6119	120.926	120.959		Liver	3.79		1.3	kg	41	cm	"Fork length"																																	2016/5/31	2016/6/14
PRA000001	SAA000080	ST008	8226	es-BANK	EF00570		"Katsuwonus pelamis"	"Skipjack tuna"	1998	10	5					Asia	India	"Porto Navo"	13.0287	13.1095	80.2813	80.2859	Male	Liver	3.84		2	kg	46	cm	"Fork length"																																	2016/5/31	2016/6/14
PRA000001	SAA000081	ST008	8226	es-BANK	EF00571		"Katsuwonus pelamis"	"Skipjack tuna"	1998	10	5					Asia	India	"Porto Navo"	13.0287	13.1095	80.2813	80.2859	Female	Liver	4.29		2	kg	47	cm	"Fork length"																																	2016/5/31	2016/6/14
PRA000001	SAA000082	ST008	8226	es-BANK	EF00616		"Katsuwonus pelamis"	"Skipjack tuna"	1999	1	1					Asia	Indonesia	Jakarta	-6.100319444	-5.975438889	106.727	107.008	Female	Liver	7.93		2	kg	47.5	cm	"Fork length"																																	2016/5/31	2016/6/14
PRA000001	SAA000083	ST008	8226	es-BANK	EF00617		"Katsuwonus pelamis"	"Skipjack tuna"	1999	1	1					Asia	Indonesia	Jakarta	-6.100319444	-5.975438889	106.727	107.008	Female	Liver	5.63		2	kg	46	cm	"Fork length"																																	2016/5/31	2016/6/14
PRA000001	SAA000084	ST008	8226	es-BANK	EF00619		"Katsuwonus pelamis"	"Skipjack tuna"	1999	1	1					Africa	Mauritius	Mauritius	-20.5617	-19.9478	57.2483	57.93	Male	Liver	3.02		3.4	kg	55	cm	"Fork length"																																	2016/5/31	2016/6/14
PRA000001	SAA000085	ST008	8226	es-BANK	EF00620		"Katsuwonus pelamis"	"Skipjack tuna"	1999	1	1					Africa	Mauritius	Mauritius	-20.5617	-19.9478	57.2483	57.93	Female	Liver	3.19		3.8	kg	55	cm	"Fork length"																																	2016/5/31	2016/6/14
PRA000001	SAA000086	ST008	8226	es-BANK	EF00621		"Katsuwonus pelamis"	"Skipjack tuna"	1999	1	1					Africa	Mauritius	Mauritius	-20.5617	-19.9478	57.2483	57.93	Male	Liver	2.75		3.7	kg	54	cm	"Fork length"																																	2016/5/31	2016/6/14
